Flight Track Log - Related Links

Times and Time Zones

All times are in EDT time to prevent confusion due to time zone crossing. See the SKQ221 flight status page for this flight to view local times or setup timezone preferences in your user account.

Time Position Orientation Groundspeed Altitude Reporting Facility
EDT Latitude Longitude Course Direction KTS MPH feet Rate Location/Type
Wed 08:56:27 PM 42.1667 -87.8667 37° Northeast 121 139 2,500  Level Chicago TRACON
Wed 08:57:08 PM 42.1817 -87.8503 39° Northeast 127 146 2,900 291 Climbing Chicago Center
Wed 08:58:10 PM 42.1947 -87.7997 71° East 151 174 3,000  Climbing Chicago Center
Wed 08:59:12 PM 42.1883 -87.7289 97° East 177 204 2,900 -48 Descending Chicago Center
Wed 09:00:14 PM 42.1853 -87.6592 93° East 186 214 2,900 48 Level Chicago Center
Wed 09:01:16 PM 42.1831 -87.5814 92° East 182 209 3,000 484 Climbing Chicago Center
Wed 09:02:18 PM 42.1797 -87.5161 94° East 178 205 3,900 774 Climbing Chicago Center
Wed 09:03:20 PM 42.1767 -87.4583 94° East 167 192 4,600 677 Climbing Chicago Center
Wed 09:04:22 PM 42.1722 -87.3958 95° East 166 191 5,300 629 Climbing Chicago Center
Wed 09:05:24 PM 42.1678 -87.3317 95° East 169 194 5,900 726 Climbing Chicago Center
Wed 09:06:26 PM 42.1639 -87.2553 94° East 171 197 6,800 774 Climbing Chicago Center
Wed 09:07:28 PM 42.1603 -87.1900 94° East 174 200 7,500 1,016 Climbing Chicago Center
Wed 09:08:30 PM 42.1572 -87.1306 94° East 166 191 8,900 677 Climbing Chicago Center
Wed 09:09:32 PM 42.1558 -87.0675 92° East 167 192 8,900 97 Level Chicago Center
Wed 09:10:34 PM 42.1319 -86.9978 115° Southeast 196 226 9,100 48 Climbing Chicago Center
Wed 09:11:36 PM 42.0992 -86.9347 125° Southeast 205 236 9,000 -48 Descending Chicago Center
Wed 09:12:38 PM 42.0625 -86.8608 124° Southeast 201 231 9,000  Level Chicago Center
Wed 09:13:40 PM 42.0314 -86.7992 124° Southeast 200 230 9,000  Level Chicago Center
Wed 09:14:42 PM 41.9992 -86.7364 125° Southeast 202 232 9,000  Level Chicago Center
Wed 09:15:44 PM 41.9669 -86.6706 123° Southeast 203 234 9,000  Level Chicago Center
Wed 09:16:46 PM 41.9358 -86.6081 124° Southeast 201 231 9,000  Level Chicago Center
Wed 09:17:48 PM 41.9047 -86.5450 124° Southeast 202 232 9,000  Level Chicago Center
Wed 09:18:50 PM 41.8731 -86.4825 124° Southeast 202 232 9,000  Level Chicago Center
Wed 09:19:52 PM 41.8425 -86.4200 123° Southeast 201 231 9,000  Level Chicago Center
Wed 09:20:53 PM 41.8067 -86.3450 123° Southeast 200 230 9,000  Level Chicago Center
Wed 09:21:55 PM 41.7756 -86.2867 126° Southeast 195 224 9,000 48 Level Chicago Center
Wed 09:22:57 PM 41.7461 -86.2264 123° Southeast 193 222 9,100  Climbing Chicago Center
Wed 09:23:59 PM 41.7153 -86.1681 125° Southeast 193 222 9,000 -48 Descending Chicago Center
Wed 09:25:01 PM 41.6847 -86.1078 124° Southeast 195 224 9,000  Level Chicago Center
Wed 09:26:03 PM 41.6542 -86.0469 124° Southeast 197 227 9,000  Level Chicago Center
Wed 09:27:05 PM 41.6169 -85.9744 124° Southeast 198 228 9,000  Level Chicago Center
Wed 09:28:07 PM 41.5861 -85.9144 124° Southeast 196 226 9,000  Level Chicago Center
Wed 09:29:08 PM 41.5558 -85.8536 124° Southeast 199 229 9,000  Level Chicago Center
Wed 09:30:10 PM 41.5253 -85.7936 124° Southeast 198 228 9,000  Level Chicago Center
Wed 09:31:12 PM 41.4939 -85.7328 125° Southeast 200 230 9,000  Level Chicago Center
Wed 09:32:14 PM 41.4633 -85.6722 124° Southeast 199 229 9,000  Level Chicago Center
Wed 09:33:16 PM 41.4261 -85.5981 124° Southeast 203 234 9,000  Level Chicago Center
Wed 09:34:17 PM 41.3956 -85.5383 124° Southeast 198 228 9,000  Level Chicago Center
Wed 09:35:19 PM 41.3639 -85.4775 125° Southeast 201 231 9,000  Level Chicago Center
Wed 09:36:21 PM 41.3328 -85.4175 125° Southeast 199 229 9,000  Level Chicago Center
Wed 09:37:23 PM 41.3019 -85.3569 124° Southeast 199 229 9,000  Level Chicago Center
Wed 09:38:24 PM 41.2653 -85.2861 125° Southeast 196 226 9,000  Level Chicago Center
Wed 09:39:26 PM 41.2342 -85.2258 124° Southeast 197 227 9,000  Level Chicago Center
Wed 09:40:28 PM 41.2028 -85.1650 124° Southeast 199 229 9,000  Level Chicago Center
Wed 09:41:30 PM 41.1711 -85.1044 125° Southeast 201 231 9,000  Level Chicago Center
Wed 09:42:31 PM 41.1394 -85.0428 124° Southeast 202 232 9,000  Level Chicago Center
Wed 09:43:33 PM 41.1078 -84.9831 125° Southeast 200 230 9,000  Level Chicago Center
Wed 09:44:35 PM 41.0750 -84.9219 125° Southeast 203 234 9,000  Level Chicago Center
Wed 09:45:36 PM 41.0372 -84.8483 124° Southeast 202 232 9,000  Level Chicago Center
Wed 09:46:38 PM 41.0044 -84.7875 126° Southeast 203 234 9,000  Level Chicago Center
Wed 09:47:40 PM 40.9717 -84.7258 125° Southeast 205 236 9,000  Level Chicago Center
Wed 09:48:42 PM 40.9394 -84.6644 125° Southeast 205 236 9,000  Level Chicago Center
Wed 09:49:43 PM 40.9072 -84.6031 125° Southeast 205 236 9,000 49 Level Chicago Center
Wed 09:50:45 PM 40.8750 -84.5422 125° Southeast 204 235 9,100 -55 Climbing Chicago Center
Wed 09:51:32 PM 40.8467 -84.4903 126° Southeast 197 227 8,900 -111 Descending Indianapolis Center
Wed 09:52:33 PM 40.8153 -84.4306 125° Southeast 195 224 8,900 79 Level Indianapolis Center
Wed 09:52:48 PM 40.8072 -84.4128 121° Southeast 197 227 9,000  Climbing Chicago Center
Wed 09:53:35 PM 40.7842 -84.3708 126° Southeast 195 224 8,900 -56 Descending Indianapolis Center
Wed 09:54:36 PM 40.7519 -84.3122 126° Southeast 195 224 8,900  Level Indianapolis Center
Wed 09:55:37 PM 40.7200 -84.2525 125° Southeast 196 226 8,900  Level Indianapolis Center
Wed 09:56:39 PM 40.6892 -84.1925 124° Southeast 197 227 8,900  Level Indianapolis Center
Wed 09:57:40 PM 40.6561 -84.1333 126° Southeast 198 228 8,900  Level Indianapolis Center
Wed 09:58:41 PM 40.6250 -84.0747 125° Southeast 195 224 8,900  Level Indianapolis Center
Wed 09:59:42 PM 40.5933 -84.0150 125° Southeast 196 226 8,900  Level Indianapolis Center
Wed 10:00:44 PM 40.5608 -83.9550 125° Southeast 199 229 8,900  Level Indianapolis Center
Wed 10:01:45 PM 40.5275 -83.8950 126° Southeast 200 230 8,900 49 Level Indianapolis Center
Wed 10:02:46 PM 40.4961 -83.8342 124° Southeast 200 230 9,000 57 Climbing Indianapolis Center
Wed 10:03:30 PM 40.4661 -83.7831 128° Southeast 199 229 9,000  Level Indianapolis Center
Wed 10:03:47 PM 40.4583 -83.7642 118° Southeast 200 230 9,000  Level Indianapolis Center
Wed 10:04:48 PM 40.4244 -83.7047 127° Southeast 201 231 9,000 -419 Level Indianapolis Center
Wed 10:05:56 PM 40.3831 -83.6328 127° Southeast 222 255 8,100 -738 Descending Indianapolis Center
Wed 10:06:50 PM 40.3539 -83.5725 122° Southeast 222 255 7,500 -776 Descending Indianapolis Center
Wed 10:07:52 PM 40.3181 -83.5058 125° Southeast 223 257 6,600 -732 Descending Indianapolis Center
Wed 10:08:53 PM 40.2814 -83.4417 127° Southeast 219 252 6,000 -689 Descending Indianapolis Center
Wed 10:09:54 PM 40.2467 -83.3792 126° Southeast 211 243 5,200 -836 Descending Indianapolis Center
Wed 10:10:55 PM 40.2097 -83.3186 129° Southeast 211 243 4,300 -934 Descending Indianapolis Center
Wed 10:11:56 PM 40.1750 -83.2578 127° Southeast 209 241 3,300 -787 Descending Indianapolis Center
Wed 10:12:57 PM 40.1425 -83.1967 125° Southeast 206 237 2,700 -639 Descending Indianapolis Center
Wed 10:13:58 PM 40.1125 -83.1386 124° Southeast 198 228 2,000 -356 Descending Indianapolis Center
Wed 10:14:55 PM 40.1086 -83.0750 95° East 160 184 2,000 -268 Level Indianapolis Center
Wed 10:15:50 PM 40.0967 -83.0353 111° Southeast 141 162 1,500 -472 Descending Indianapolis Center
Wed 10:17:02 PM 40.0769 -83.0606 224° Southwest 144 166 1,000 -417 Descending Indianapolis Center

Login

Don't have an account? Register now (free) for customized features, flight alerts, and more!